sensor_id;sensor_type;location;lat;lon;timestamp;P1;durP1;ratioP1;P2;durP2;ratioP2
8716;SDS011;4395;48.554;8.820;2023-03-25T00:00:21;1.95;;;0.70;;
8716;SDS011;4395;48.554;8.820;2023-03-25T00:02:25;3.70;;;1.20;;
8716;SDS011;4395;48.554;8.820;2023-03-25T00:04:30;1.70;;;0.70;;
8716;SDS011;4395;48.554;8.820;2023-03-25T00:06:35;1.85;;;0.90;;
8716;SDS011;4395;48.554;8.820;2023-03-25T00:08:38;2.17;;;0.63;;
8716;SDS011;4395;48.554;8.820;2023-03-25T00:10:41;1.08;;;0.98;;
8716;SDS011;4395;48.554;8.820;2023-03-25T00:12:43;1.77;;;0.57;;
8716;SDS011;4395;48.554;8.820;2023-03-25T00:14:48;2.20;;;0.60;;
8716;SDS011;4395;48.554;8.820;2023-03-25T00:16:56;1.45;;;0.90;;
8716;SDS011;4395;48.554;8.820;2023-03-25T00:18:59;2.00;;;0.80;;
8716;SDS011;4395;48.554;8.820;2023-03-25T00:21:03;2.35;;;0.60;;
8716;SDS011;4395;48.554;8.820;2023-03-25T00:23:07;1.52;;;0.70;;
8716;SDS011;4395;48.554;8.820;2023-03-25T00:25:11;2.47;;;1.25;;
8716;SDS011;4395;48.554;8.820;2023-03-25T00:27:18;1.63;;;0.90;;
8716;SDS011;4395;48.554;8.820;2023-03-25T00:29:21;1.20;;;0.80;;
8716;SDS011;4395;48.554;8.820;2023-03-25T00:31:25;1.35;;;0.70;;
8716;SDS011;4395;48.554;8.820;2023-03-25T00:33:28;3.15;;;1.10;;
8716;SDS011;4395;48.554;8.820;2023-03-25T00:35:32;2.17;;;0.85;;
8716;SDS011;4395;48.554;8.820;2023-03-25T00:37:36;2.17;;;1.00;;
8716;SDS011;4395;48.554;8.820;2023-03-25T00:39:38;2.03;;;0.70;;
8716;SDS011;4395;48.554;8.820;2023-03-25T00:41:41;3.55;;;1.45;;
8716;SDS011;4395;48.554;8.820;2023-03-25T00:43:44;3.00;;;0.75;;
8716;SDS011;4395;48.554;8.820;2023-03-25T00:45:47;1.67;;;0.90;;
8716;SDS011;4395;48.554;8.820;2023-03-25T00:47:51;3.40;;;0.77;;
8716;SDS011;4395;48.554;8.820;2023-03-25T00:49:54;0.98;;;0.50;;
8716;SDS011;4395;48.554;8.820;2023-03-25T00:51:57;2.15;;;0.88;;
8716;SDS011;4395;48.554;8.820;2023-03-25T00:54:00;2.08;;;1.38;;
8716;SDS011;4395;48.554;8.820;2023-03-25T00:56:04;2.08;;;0.85;;
8716;SDS011;4395;48.554;8.820;2023-03-25T00:58:07;2.15;;;0.98;;
8716;SDS011;4395;48.554;8.820;2023-03-25T01:00:11;3.15;;;0.85;;
8716;SDS011;4395;48.554;8.820;2023-03-25T01:02:16;4.53;;;1.10;;
8716;SDS011;4395;48.554;8.820;2023-03-25T01:04:20;2.08;;;0.88;;
8716;SDS011;4395;48.554;8.820;2023-03-25T01:06:24;4.72;;;1.00;;
8716;SDS011;4395;48.554;8.820;2023-03-25T01:08:30;3.67;;;1.38;;
8716;SDS011;4395;48.554;8.820;2023-03-25T01:10:34;2.78;;;1.00;;
8716;SDS011;4395;48.554;8.820;2023-03-25T01:12:37;1.40;;;0.68;;
8716;SDS011;4395;48.554;8.820;2023-03-25T01:14:40;3.17;;;0.88;;
8716;SDS011;4395;48.554;8.820;2023-03-25T01:16:43;1.25;;;0.57;;
8716;SDS011;4395;48.554;8.820;2023-03-25T01:18:46;1.98;;;0.75;;
8716;SDS011;4395;48.554;8.820;2023-03-25T01:20:51;4.43;;;0.95;;
8716;SDS011;4395;48.554;8.820;2023-03-25T01:22:54;2.97;;;0.80;;
8716;SDS011;4395;48.554;8.820;2023-03-25T01:24:56;2.42;;;0.80;;
8716;SDS011;4395;48.554;8.820;2023-03-25T01:26:59;2.58;;;1.05;;
8716;SDS011;4395;48.554;8.820;2023-03-25T01:29:02;2.45;;;0.80;;
8716;SDS011;4395;48.554;8.820;2023-03-25T01:31:07;3.25;;;0.88;;
8716;SDS011;4395;48.554;8.820;2023-03-25T01:33:12;3.63;;;1.70;;
8716;SDS011;4395;48.554;8.820;2023-03-25T01:35:15;3.15;;;0.93;;
8716;SDS011;4395;48.554;8.820;2023-03-25T01:37:19;1.38;;;0.80;;
8716;SDS011;4395;48.554;8.820;2023-03-25T01:39:23;2.35;;;0.88;;
8716;SDS011;4395;48.554;8.820;2023-03-25T01:41:26;1.90;;;0.88;;
8716;SDS011;4395;48.554;8.820;2023-03-25T01:44:06;1.75;;;0.82;;
8716;SDS011;4395;48.554;8.820;2023-03-25T01:46:10;2.88;;;0.80;;
8716;SDS011;4395;48.554;8.820;2023-03-25T01:48:16;0.95;;;0.80;;
8716;SDS011;4395;48.554;8.820;2023-03-25T01:50:23;3.15;;;0.73;;
8716;SDS011;4395;48.554;8.820;2023-03-25T01:52:30;2.08;;;0.73;;
8716;SDS011;4395;48.554;8.820;2023-03-25T01:54:33;1.10;;;0.50;;
8716;SDS011;4395;48.554;8.820;2023-03-25T01:56:39;1.55;;;0.60;;
8716;SDS011;4395;48.554;8.820;2023-03-25T01:58:43;2.65;;;1.10;;
8716;SDS011;4395;48.554;8.820;2023-03-25T02:00:46;1.58;;;0.50;;
8716;SDS011;4395;48.554;8.820;2023-03-25T02:02:51;1.30;;;0.77;;
8716;SDS011;4395;48.554;8.820;2023-03-25T02:04:59;1.20;;;0.50;;
8716;SDS011;4395;48.554;8.820;2023-03-25T02:07:08;2.25;;;0.73;;
8716;SDS011;4395;48.554;8.820;2023-03-25T02:09:14;2.53;;;0.80;;
8716;SDS011;4395;48.554;8.820;2023-03-25T02:11:19;1.98;;;1.00;;
8716;SDS011;4395;48.554;8.820;2023-03-25T02:13:22;0.88;;;0.52;;
8716;SDS011;4395;48.554;8.820;2023-03-25T02:15:25;2.22;;;0.60;;
8716;SDS011;4395;48.554;8.820;2023-03-25T02:17:31;0.98;;;0.50;;
8716;SDS011;4395;48.554;8.820;2023-03-25T02:25:13;1.77;;;0.60;;
8716;SDS011;4395;48.554;8.820;2023-03-25T02:27:36;1.42;;;0.50;;
8716;SDS011;4395;48.554;8.820;2023-03-25T02:32:46;3.75;;;0.70;;
8716;SDS011;4395;48.554;8.820;2023-03-25T02:35:12;3.25;;;0.77;;
8716;SDS011;4395;48.554;8.820;2023-03-25T02:37:30;2.22;;;0.70;;
8716;SDS011;4395;48.554;8.820;2023-03-25T02:39:49;1.17;;;0.65;;
8716;SDS011;4395;48.554;8.820;2023-03-25T02:41:57;1.17;;;0.50;;
8716;SDS011;4395;48.554;8.820;2023-03-25T02:44:06;3.17;;;0.35;;
8716;SDS011;4395;48.554;8.820;2023-03-25T02:46:15;1.55;;;0.30;;
8716;SDS011;4395;48.554;8.820;2023-03-25T02:48:20;0.35;;;0.25;;
8716;SDS011;4395;48.554;8.820;2023-03-25T02:50:28;1.05;;;0.45;;
8716;SDS011;4395;48.554;8.820;2023-03-25T02:52:36;1.60;;;0.50;;
8716;SDS011;4395;48.554;8.820;2023-03-25T02:54:43;0.30;;;0.30;;
8716;SDS011;4395;48.554;8.820;2023-03-25T02:56:51;1.40;;;0.22;;
8716;SDS011;4395;48.554;8.820;2023-03-25T02:58:58;0.40;;;0.20;;
8716;SDS011;4395;48.554;8.820;2023-03-25T03:01:02;0.20;;;0.10;;
8716;SDS011;4395;48.554;8.820;2023-03-25T03:03:06;0.22;;;0.17;;
8716;SDS011;4395;48.554;8.820;2023-03-25T03:05:21;0.47;;;0.20;;
8716;SDS011;4395;48.554;8.820;2023-03-25T03:07:27;0.45;;;0.28;;
8716;SDS011;4395;48.554;8.820;2023-03-25T03:09:34;0.30;;;0.30;;
8716;SDS011;4395;48.554;8.820;2023-03-25T03:11:44;0.85;;;0.57;;
8716;SDS011;4395;48.554;8.820;2023-03-25T03:14:01;1.27;;;1.00;;
8716;SDS011;4395;48.554;8.820;2023-03-25T03:16:23;0.80;;;0.80;;
8716;SDS011;4395;48.554;8.820;2023-03-25T03:18:37;1.95;;;0.90;;
8716;SDS011;4395;48.554;8.820;2023-03-25T03:20:48;2.47;;;1.38;;
8716;SDS011;4395;48.554;8.820;2023-03-25T03:23:02;0.95;;;0.50;;
8716;SDS011;4395;48.554;8.820;2023-03-25T03:25:14;1.25;;;1.00;;
8716;SDS011;4395;48.554;8.820;2023-03-25T03:27:26;3.53;;;0.60;;
8716;SDS011;4395;48.554;8.820;2023-03-25T03:29:35;0.75;;;0.32;;
8716;SDS011;4395;48.554;8.820;2023-03-25T03:31:41;0.50;;;0.20;;
8716;SDS011;4395;48.554;8.820;2023-03-25T03:34:07;1.17;;;1.08;;
8716;SDS011;4395;48.554;8.820;2023-03-25T03:36:15;1.02;;;0.45;;
8716;SDS011;4395;48.554;8.820;2023-03-25T03:38:21;1.35;;;1.00;;
8716;SDS011;4395;48.554;8.820;2023-03-25T03:40:27;1.90;;;0.80;;
8716;SDS011;4395;48.554;8.820;2023-03-25T03:42:34;1.85;;;1.60;;
8716;SDS011;4395;48.554;8.820;2023-03-25T03:44:42;1.27;;;1.05;;
8716;SDS011;4395;48.554;8.820;2023-03-25T03:46:51;1.83;;;1.45;;
8716;SDS011;4395;48.554;8.820;2023-03-25T03:48:59;2.35;;;1.15;;
8716;SDS011;4395;48.554;8.820;2023-03-25T03:51:05;1.73;;;0.82;;
8716;SDS011;4395;48.554;8.820;2023-03-25T03:53:12;2.17;;;1.20;;
8716;SDS011;4395;48.554;8.820;2023-03-25T03:55:21;6.03;;;2.70;;
8716;SDS011;4395;48.554;8.820;2023-03-25T03:57:30;3.30;;;2.58;;
8716;SDS011;4395;48.554;8.820;2023-03-25T03:59:40;4.22;;;2.08;;
8716;SDS011;4395;48.554;8.820;2023-03-25T04:01:49;5.85;;;3.10;;
8716;SDS011;4395;48.554;8.820;2023-03-25T04:04:00;6.55;;;2.83;;
8716;SDS011;4395;48.554;8.820;2023-03-25T04:06:07;4.70;;;2.17;;
8716;SDS011;4395;48.554;8.820;2023-03-25T04:08:21;2.45;;;1.55;;
8716;SDS011;4395;48.554;8.820;2023-03-25T04:10:32;3.15;;;1.52;;
8716;SDS011;4395;48.554;8.820;2023-03-25T04:12:42;4.47;;;2.00;;
8716;SDS011;4395;48.554;8.820;2023-03-25T04:14:48;2.95;;;2.00;;
8716;SDS011;4395;48.554;8.820;2023-03-25T04:16:51;4.55;;;1.70;;
8716;SDS011;4395;48.554;8.820;2023-03-25T04:18:53;3.80;;;1.80;;
8716;SDS011;4395;48.554;8.820;2023-03-25T04:20:58;5.45;;;2.20;;
8716;SDS011;4395;48.554;8.820;2023-03-25T04:23:02;3.38;;;1.63;;
8716;SDS011;4395;48.554;8.820;2023-03-25T04:25:06;3.10;;;1.27;;
8716;SDS011;4395;48.554;8.820;2023-03-25T04:27:09;2.42;;;1.42;;
8716;SDS011;4395;48.554;8.820;2023-03-25T04:29:14;2.15;;;1.02;;
8716;SDS011;4395;48.554;8.820;2023-03-25T04:31:18;2.17;;;0.98;;
8716;SDS011;4395;48.554;8.820;2023-03-25T04:33:21;3.83;;;0.85;;
8716;SDS011;4395;48.554;8.820;2023-03-25T04:35:24;3.38;;;0.85;;
8716;SDS011;4395;48.554;8.820;2023-03-25T04:37:27;3.08;;;1.05;;
8716;SDS011;4395;48.554;8.820;2023-03-25T04:39:30;3.25;;;1.45;;
8716;SDS011;4395;48.554;8.820;2023-03-25T04:41:33;2.72;;;1.10;;
8716;SDS011;4395;48.554;8.820;2023-03-25T04:43:36;7.35;;;1.58;;
8716;SDS011;4395;48.554;8.820;2023-03-25T04:45:39;3.10;;;1.25;;
8716;SDS011;4395;48.554;8.820;2023-03-25T04:47:51;4.18;;;1.38;;
8716;SDS011;4395;48.554;8.820;2023-03-25T04:49:55;3.80;;;1.10;;
8716;SDS011;4395;48.554;8.820;2023-03-25T04:51:58;2.40;;;1.25;;
8716;SDS011;4395;48.554;8.820;2023-03-25T04:54:02;1.55;;;0.98;;
8716;SDS011;4395;48.554;8.820;2023-03-25T04:56:11;2.25;;;1.00;;
8716;SDS011;4395;48.554;8.820;2023-03-25T04:58:17;5.45;;;1.80;;
8716;SDS011;4395;48.554;8.820;2023-03-25T05:00:21;3.35;;;1.60;;
8716;SDS011;4395;48.554;8.820;2023-03-25T05:02:25;5.53;;;2.67;;
8716;SDS011;4395;48.554;8.820;2023-03-25T05:04:30;2.05;;;1.17;;
8716;SDS011;4395;48.554;8.820;2023-03-25T05:06:33;4.78;;;1.13;;
8716;SDS011;4395;48.554;8.820;2023-03-25T05:08:38;3.33;;;1.00;;
8716;SDS011;4395;48.554;8.820;2023-03-25T05:10:41;5.38;;;1.50;;
8716;SDS011;4395;48.554;8.820;2023-03-25T05:12:44;4.18;;;1.20;;
8716;SDS011;4395;48.554;8.820;2023-03-25T05:14:48;4.20;;;0.90;;
8716;SDS011;4395;48.554;8.820;2023-03-25T05:16:50;4.03;;;1.20;;
8716;SDS011;4395;48.554;8.820;2023-03-25T05:18:53;4.25;;;1.67;;
8716;SDS011;4395;48.554;8.820;2023-03-25T05:20:58;1.33;;;0.82;;
8716;SDS011;4395;48.554;8.820;2023-03-25T05:23:03;2.05;;;1.00;;
8716;SDS011;4395;48.554;8.820;2023-03-25T05:25:06;2.42;;;0.90;;
8716;SDS011;4395;48.554;8.820;2023-03-25T05:27:11;2.20;;;1.10;;
8716;SDS011;4395;48.554;8.820;2023-03-25T05:29:14;4.75;;;1.30;;
8716;SDS011;4395;48.554;8.820;2023-03-25T05:31:17;4.90;;;1.27;;
8716;SDS011;4395;48.554;8.820;2023-03-25T05:33:20;2.15;;;1.10;;
8716;SDS011;4395;48.554;8.820;2023-03-25T05:35:23;3.58;;;1.33;;
8716;SDS011;4395;48.554;8.820;2023-03-25T05:37:28;3.53;;;1.33;;
8716;SDS011;4395;48.554;8.820;2023-03-25T05:39:31;6.22;;;1.27;;
8716;SDS011;4395;48.554;8.820;2023-03-25T05:41:34;2.78;;;1.50;;
8716;SDS011;4395;48.554;8.820;2023-03-25T05:43:39;4.00;;;1.17;;
8716;SDS011;4395;48.554;8.820;2023-03-25T05:45:48;3.30;;;0.98;;
8716;SDS011;4395;48.554;8.820;2023-03-25T05:47:51;1.55;;;1.00;;
8716;SDS011;4395;48.554;8.820;2023-03-25T05:49:54;5.07;;;1.05;;
8716;SDS011;4395;48.554;8.820;2023-03-25T05:51:57;2.78;;;1.27;;
8716;SDS011;4395;48.554;8.820;2023-03-25T05:54:01;2.28;;;0.82;;
8716;SDS011;4395;48.554;8.820;2023-03-25T05:56:09;3.65;;;1.20;;
8716;SDS011;4395;48.554;8.820;2023-03-25T05:58:12;2.78;;;1.00;;
8716;SDS011;4395;48.554;8.820;2023-03-25T06:00:15;2.33;;;1.10;;
8716;SDS011;4395;48.554;8.820;2023-03-25T06:02:23;3.75;;;0.93;;
8716;SDS011;4395;48.554;8.820;2023-03-25T06:04:26;2.17;;;0.82;;
8716;SDS011;4395;48.554;8.820;2023-03-25T06:06:29;4.03;;;1.15;;
8716;SDS011;4395;48.554;8.820;2023-03-25T06:08:34;3.15;;;1.23;;
8716;SDS011;4395;48.554;8.820;2023-03-25T06:10:39;4.57;;;0.93;;
8716;SDS011;4395;48.554;8.820;2023-03-25T06:12:42;1.63;;;0.80;;
8716;SDS011;4395;48.554;8.820;2023-03-25T06:14:45;1.77;;;1.02;;
8716;SDS011;4395;48.554;8.820;2023-03-25T06:16:49;2.03;;;0.80;;
8716;SDS011;4395;48.554;8.820;2023-03-25T06:18:52;2.75;;;0.98;;
8716;SDS011;4395;48.554;8.820;2023-03-25T06:21:00;1.73;;;0.52;;
8716;SDS011;4395;48.554;8.820;2023-03-25T06:23:03;4.85;;;0.88;;
8716;SDS011;4395;48.554;8.820;2023-03-25T06:25:07;2.75;;;0.65;;
8716;SDS011;4395;48.554;8.820;2023-03-25T06:27:13;2.38;;;0.95;;
8716;SDS011;4395;48.554;8.820;2023-03-25T06:29:17;3.10;;;0.77;;
8716;SDS011;4395;48.554;8.820;2023-03-25T06:31:21;2.78;;;1.00;;
8716;SDS011;4395;48.554;8.820;2023-03-25T06:33:27;1.27;;;0.43;;
8716;SDS011;4395;48.554;8.820;2023-03-25T06:35:45;4.75;;;1.70;;
8716;SDS011;4395;48.554;8.820;2023-03-25T06:37:51;3.50;;;2.22;;
8716;SDS011;4395;48.554;8.820;2023-03-25T06:40:04;3.50;;;2.40;;
8716;SDS011;4395;48.554;8.820;2023-03-25T06:42:09;3.78;;;1.73;;
8716;SDS011;4395;48.554;8.820;2023-03-25T06:44:32;3.92;;;2.60;;
8716;SDS011;4395;48.554;8.820;2023-03-25T06:47:04;6.97;;;2.63;;
8716;SDS011;4395;48.554;8.820;2023-03-25T06:49:18;5.80;;;2.88;;
8716;SDS011;4395;48.554;8.820;2023-03-25T06:51:21;6.40;;;2.90;;
8716;SDS011;4395;48.554;8.820;2023-03-25T06:53:24;2.17;;;1.13;;
8716;SDS011;4395;48.554;8.820;2023-03-25T06:55:27;4.70;;;1.40;;
8716;SDS011;4395;48.554;8.820;2023-03-25T06:57:30;2.90;;;1.50;;
8716;SDS011;4395;48.554;8.820;2023-03-25T06:59:34;3.58;;;2.10;;
8716;SDS011;4395;48.554;8.820;2023-03-25T07:01:37;2.92;;;1.20;;
8716;SDS011;4395;48.554;8.820;2023-03-25T07:03:39;1.45;;;1.10;;
8716;SDS011;4395;48.554;8.820;2023-03-25T07:05:42;2.47;;;0.95;;
8716;SDS011;4395;48.554;8.820;2023-03-25T07:07:45;2.70;;;1.25;;
8716;SDS011;4395;48.554;8.820;2023-03-25T07:09:49;4.22;;;1.02;;
8716;SDS011;4395;48.554;8.820;2023-03-25T07:11:52;0.88;;;0.60;;
8716;SDS011;4395;48.554;8.820;2023-03-25T07:13:55;2.28;;;1.25;;
8716;SDS011;4395;48.554;8.820;2023-03-25T07:16:01;2.25;;;1.05;;
8716;SDS011;4395;48.554;8.820;2023-03-25T07:18:04;1.98;;;1.15;;
8716;SDS011;4395;48.554;8.820;2023-03-25T07:20:07;1.48;;;1.08;;
8716;SDS011;4395;48.554;8.820;2023-03-25T07:22:14;1.80;;;0.88;;
8716;SDS011;4395;48.554;8.820;2023-03-25T07:24:17;2.95;;;1.17;;
8716;SDS011;4395;48.554;8.820;2023-03-25T07:26:19;2.20;;;0.80;;
8716;SDS011;4395;48.554;8.820;2023-03-25T07:28:23;2.35;;;1.40;;
8716;SDS011;4395;48.554;8.820;2023-03-25T07:30:25;2.20;;;0.80;;
8716;SDS011;4395;48.554;8.820;2023-03-25T07:32:29;2.85;;;1.00;;
8716;SDS011;4395;48.554;8.820;2023-03-25T07:34:32;1.58;;;1.08;;
8716;SDS011;4395;48.554;8.820;2023-03-25T07:36:35;2.58;;;0.98;;
8716;SDS011;4395;48.554;8.820;2023-03-25T07:38:38;2.03;;;0.95;;
8716;SDS011;4395;48.554;8.820;2023-03-25T07:40:41;1.15;;;0.50;;
8716;SDS011;4395;48.554;8.820;2023-03-25T07:42:50;2.10;;;0.70;;
8716;SDS011;4395;48.554;8.820;2023-03-25T07:45:13;1.83;;;0.55;;
8716;SDS011;4395;48.554;8.820;2023-03-25T07:47:18;2.85;;;0.73;;
8716;SDS011;4395;48.554;8.820;2023-03-25T07:49:22;0.93;;;0.60;;
8716;SDS011;4395;48.554;8.820;2023-03-25T07:51:25;0.65;;;0.60;;
8716;SDS011;4395;48.554;8.820;2023-03-25T07:53:28;1.23;;;0.47;;
8716;SDS011;4395;48.554;8.820;2023-03-25T07:55:31;2.50;;;0.77;;
8716;SDS011;4395;48.554;8.820;2023-03-25T07:57:34;1.38;;;0.70;;
8716;SDS011;4395;48.554;8.820;2023-03-25T07:59:37;1.42;;;0.80;;
8716;SDS011;4395;48.554;8.820;2023-03-25T08:01:40;0.88;;;0.43;;
8716;SDS011;4395;48.554;8.820;2023-03-25T08:03:43;0.77;;;0.60;;
8716;SDS011;4395;48.554;8.820;2023-03-25T08:05:47;2.42;;;0.63;;
8716;SDS011;4395;48.554;8.820;2023-03-25T08:07:51;2.95;;;0.73;;
8716;SDS011;4395;48.554;8.820;2023-03-25T08:09:53;0.65;;;0.40;;
8716;SDS011;4395;48.554;8.820;2023-03-25T08:11:56;1.27;;;0.40;;
8716;SDS011;4395;48.554;8.820;2023-03-25T08:13:59;1.13;;;0.50;;
8716;SDS011;4395;48.554;8.820;2023-03-25T08:16:07;1.02;;;0.60;;
8716;SDS011;4395;48.554;8.820;2023-03-25T08:18:12;3.53;;;0.60;;
8716;SDS011;4395;48.554;8.820;2023-03-25T08:20:15;1.25;;;0.60;;
8716;SDS011;4395;48.554;8.820;2023-03-25T08:22:20;0.90;;;0.40;;
8716;SDS011;4395;48.554;8.820;2023-03-25T08:24:23;1.02;;;0.50;;
8716;SDS011;4395;48.554;8.820;2023-03-25T08:26:27;1.75;;;0.93;;
8716;SDS011;4395;48.554;8.820;2023-03-25T08:28:31;2.25;;;1.15;;
8716;SDS011;4395;48.554;8.820;2023-03-25T08:30:34;1.73;;;1.30;;
8716;SDS011;4395;48.554;8.820;2023-03-25T08:32:39;2.25;;;1.10;;
8716;SDS011;4395;48.554;8.820;2023-03-25T08:34:42;2.35;;;1.30;;
8716;SDS011;4395;48.554;8.820;2023-03-25T08:36:44;3.38;;;1.13;;
8716;SDS011;4395;48.554;8.820;2023-03-25T08:38:49;0.80;;;0.52;;
8716;SDS011;4395;48.554;8.820;2023-03-25T08:40:52;0.80;;;0.60;;
8716;SDS011;4395;48.554;8.820;2023-03-25T08:42:55;1.10;;;0.80;;
8716;SDS011;4395;48.554;8.820;2023-03-25T08:44:58;1.65;;;0.80;;
8716;SDS011;4395;48.554;8.820;2023-03-25T08:47:00;1.95;;;1.10;;
8716;SDS011;4395;48.554;8.820;2023-03-25T08:49:03;1.77;;;1.00;;
8716;SDS011;4395;48.554;8.820;2023-03-25T08:51:07;2.63;;;0.82;;
8716;SDS011;4395;48.554;8.820;2023-03-25T08:53:10;1.75;;;0.70;;
8716;SDS011;4395;48.554;8.820;2023-03-25T08:55:14;2.33;;;0.85;;
8716;SDS011;4395;48.554;8.820;2023-03-25T08:57:18;1.27;;;0.60;;
8716;SDS011;4395;48.554;8.820;2023-03-25T08:59:20;2.13;;;0.90;;
8716;SDS011;4395;48.554;8.820;2023-03-25T09:01:23;2.67;;;0.60;;
8716;SDS011;4395;48.554;8.820;2023-03-25T09:03:27;1.85;;;0.80;;
8716;SDS011;4395;48.554;8.820;2023-03-25T09:05:30;1.52;;;0.77;;
8716;SDS011;4395;48.554;8.820;2023-03-25T09:07:33;2.28;;;0.90;;
8716;SDS011;4395;48.554;8.820;2023-03-25T09:09:36;2.20;;;0.90;;
8716;SDS011;4395;48.554;8.820;2023-03-25T09:11:41;2.00;;;0.90;;
8716;SDS011;4395;48.554;8.820;2023-03-25T09:13:43;2.15;;;0.70;;
8716;SDS011;4395;48.554;8.820;2023-03-25T09:15:46;1.92;;;0.98;;
8716;SDS011;4395;48.554;8.820;2023-03-25T09:17:49;2.85;;;1.50;;
8716;SDS011;4395;48.554;8.820;2023-03-25T09:19:52;1.80;;;1.10;;
8716;SDS011;4395;48.554;8.820;2023-03-25T09:21:58;3.53;;;2.20;;
8716;SDS011;4395;48.554;8.820;2023-03-25T09:24:01;3.13;;;1.67;;
8716;SDS011;4395;48.554;8.820;2023-03-25T09:26:04;3.25;;;1.70;;
8716;SDS011;4395;48.554;8.820;2023-03-25T09:28:09;2.20;;;1.20;;
8716;SDS011;4395;48.554;8.820;2023-03-25T09:30:12;2.25;;;1.45;;
8716;SDS011;4395;48.554;8.820;2023-03-25T09:32:15;4.93;;;1.48;;
8716;SDS011;4395;48.554;8.820;2023-03-25T09:34:19;1.13;;;0.82;;
8716;SDS011;4395;48.554;8.820;2023-03-25T09:36:21;1.58;;;1.10;;
8716;SDS011;4395;48.554;8.820;2023-03-25T09:38:24;1.83;;;0.70;;
8716;SDS011;4395;48.554;8.820;2023-03-25T09:40:27;1.23;;;0.60;;
8716;SDS011;4395;48.554;8.820;2023-03-25T09:42:34;1.30;;;0.52;;
8716;SDS011;4395;48.554;8.820;2023-03-25T09:44:54;1.05;;;0.52;;
8716;SDS011;4395;48.554;8.820;2023-03-25T09:47:12;1.25;;;0.70;;
8716;SDS011;4395;48.554;8.820;2023-03-25T09:49:17;2.75;;;0.77;;
8716;SDS011;4395;48.554;8.820;2023-03-25T09:51:24;3.03;;;0.80;;
8716;SDS011;4395;48.554;8.820;2023-03-25T09:53:31;3.17;;;1.65;;
8716;SDS011;4395;48.554;8.820;2023-03-25T09:55:39;2.40;;;0.70;;
8716;SDS011;4395;48.554;8.820;2023-03-25T09:57:44;1.25;;;0.60;;
8716;SDS011;4395;48.554;8.820;2023-03-25T09:59:50;1.20;;;0.40;;
8716;SDS011;4395;48.554;8.820;2023-03-25T10:01:56;1.60;;;0.70;;
8716;SDS011;4395;48.554;8.820;2023-03-25T10:04:15;2.40;;;0.82;;
8716;SDS011;4395;48.554;8.820;2023-03-25T10:06:35;1.60;;;0.80;;
8716;SDS011;4395;48.554;8.820;2023-03-25T10:08:50;1.20;;;0.50;;
8716;SDS011;4395;48.554;8.820;2023-03-25T10:11:20;1.42;;;0.55;;
8716;SDS011;4395;48.554;8.820;2023-03-25T10:13:31;2.10;;;0.60;;
8716;SDS011;4395;48.554;8.820;2023-03-25T10:15:50;1.42;;;0.50;;
8716;SDS011;4395;48.554;8.820;2023-03-25T10:18:02;0.98;;;0.55;;
8716;SDS011;4395;48.554;8.820;2023-03-25T10:20:14;1.55;;;0.60;;
8716;SDS011;4395;48.554;8.820;2023-03-25T10:22:23;1.40;;;1.10;;
8716;SDS011;4395;48.554;8.820;2023-03-25T10:24:29;1.58;;;0.52;;
8716;SDS011;4395;48.554;8.820;2023-03-25T10:26:36;0.98;;;0.50;;
8716;SDS011;4395;48.554;8.820;2023-03-25T10:28:46;1.60;;;0.50;;
8716;SDS011;4395;48.554;8.820;2023-03-25T10:30:53;2.03;;;0.80;;
8716;SDS011;4395;48.554;8.820;2023-03-25T10:32:57;1.92;;;1.10;;
8716;SDS011;4395;48.554;8.820;2023-03-25T10:35:05;2.63;;;1.83;;
8716;SDS011;4395;48.554;8.820;2023-03-25T10:37:13;1.98;;;1.05;;
8716;SDS011;4395;48.554;8.820;2023-03-25T10:39:30;3.17;;;2.40;;
8716;SDS011;4395;48.554;8.820;2023-03-25T10:41:37;3.45;;;2.10;;
8716;SDS011;4395;48.554;8.820;2023-03-25T10:43:43;2.30;;;1.02;;
8716;SDS011;4395;48.554;8.820;2023-03-25T10:45:46;3.65;;;2.10;;
8716;SDS011;4395;48.554;8.820;2023-03-25T10:47:51;2.90;;;1.83;;
8716;SDS011;4395;48.554;8.820;2023-03-25T10:49:59;2.05;;;0.77;;
8716;SDS011;4395;48.554;8.820;2023-03-25T10:52:06;2.38;;;0.88;;
8716;SDS011;4395;48.554;8.820;2023-03-25T10:54:10;2.85;;;1.13;;
8716;SDS011;4395;48.554;8.820;2023-03-25T10:56:15;3.83;;;2.05;;
8716;SDS011;4395;48.554;8.820;2023-03-25T10:58:20;2.78;;;1.60;;
8716;SDS011;4395;48.554;8.820;2023-03-25T11:00:24;2.53;;;2.05;;
8716;SDS011;4395;48.554;8.820;2023-03-25T11:02:30;3.95;;;1.33;;
8716;SDS011;4395;48.554;8.820;2023-03-25T11:04:35;2.63;;;1.73;;
8716;SDS011;4395;48.554;8.820;2023-03-25T11:06:43;1.83;;;0.90;;
8716;SDS011;4395;48.554;8.820;2023-03-25T11:09:01;2.40;;;1.60;;
8716;SDS011;4395;48.554;8.820;2023-03-25T11:11:29;3.95;;;2.03;;
8716;SDS011;4395;48.554;8.820;2023-03-25T11:13:33;1.63;;;1.15;;
8716;SDS011;4395;48.554;8.820;2023-03-25T11:15:36;1.98;;;1.73;;
8716;SDS011;4395;48.554;8.820;2023-03-25T11:17:40;1.50;;;1.05;;
8716;SDS011;4395;48.554;8.820;2023-03-25T11:19:46;2.47;;;1.55;;
8716;SDS011;4395;48.554;8.820;2023-03-25T11:21:56;2.20;;;1.13;;
8716;SDS011;4395;48.554;8.820;2023-03-25T11:24:04;2.15;;;0.50;;
8716;SDS011;4395;48.554;8.820;2023-03-25T11:26:11;0.73;;;0.50;;
8716;SDS011;4395;48.554;8.820;2023-03-25T11:28:20;1.67;;;0.95;;
8716;SDS011;4395;48.554;8.820;2023-03-25T11:30:32;1.23;;;0.77;;
8716;SDS011;4395;48.554;8.820;2023-03-25T11:32:36;2.70;;;0.68;;
8716;SDS011;4395;48.554;8.820;2023-03-25T11:34:40;1.35;;;0.90;;
8716;SDS011;4395;48.554;8.820;2023-03-25T11:36:46;2.85;;;0.68;;
8716;SDS011;4395;48.554;8.820;2023-03-25T11:38:56;3.55;;;1.20;;
8716;SDS011;4395;48.554;8.820;2023-03-25T11:41:02;0.98;;;0.50;;
8716;SDS011;4395;48.554;8.820;2023-03-25T11:43:07;2.05;;;1.60;;
8716;SDS011;4395;48.554;8.820;2023-03-25T11:45:17;1.48;;;0.75;;
8716;SDS011;4395;48.554;8.820;2023-03-25T11:47:23;3.70;;;1.00;;
8716;SDS011;4395;48.554;8.820;2023-03-25T11:49:28;0.82;;;0.50;;
8716;SDS011;4395;48.554;8.820;2023-03-25T11:51:37;1.25;;;0.60;;
8716;SDS011;4395;48.554;8.820;2023-03-25T11:53:43;1.95;;;0.93;;
8716;SDS011;4395;48.554;8.820;2023-03-25T11:55:48;1.00;;;0.45;;
8716;SDS011;4395;48.554;8.820;2023-03-25T11:57:57;1.98;;;0.70;;
8716;SDS011;4395;48.554;8.820;2023-03-25T12:00:03;1.17;;;0.63;;
8716;SDS011;4395;48.554;8.820;2023-03-25T12:02:19;1.52;;;0.60;;
8716;SDS011;4395;48.554;8.820;2023-03-25T12:04:24;2.40;;;1.08;;
8716;SDS011;4395;48.554;8.820;2023-03-25T12:06:27;2.38;;;0.90;;
8716;SDS011;4395;48.554;8.820;2023-03-25T12:08:39;1.08;;;0.57;;
8716;SDS011;4395;48.554;8.820;2023-03-25T12:10:47;2.60;;;0.90;;
8716;SDS011;4395;48.554;8.820;2023-03-25T12:12:57;0.93;;;0.70;;
8716;SDS011;4395;48.554;8.820;2023-03-25T12:15:09;2.20;;;0.60;;
8716;SDS011;4395;48.554;8.820;2023-03-25T12:17:24;1.33;;;0.65;;
8716;SDS011;4395;48.554;8.820;2023-03-25T12:19:40;1.25;;;0.75;;
8716;SDS011;4395;48.554;8.820;2023-03-25T12:22:08;0.75;;;0.40;;
8716;SDS011;4395;48.554;8.820;2023-03-25T12:24:24;0.60;;;0.60;;
8716;SDS011;4395;48.554;8.820;2023-03-25T12:26:38;2.95;;;0.70;;
8716;SDS011;4395;48.554;8.820;2023-03-25T12:29:00;1.63;;;0.50;;
8716;SDS011;4395;48.554;8.820;2023-03-25T12:31:19;1.63;;;0.50;;
8716;SDS011;4395;48.554;8.820;2023-03-25T12:33:37;0.63;;;0.40;;
8716;SDS011;4395;48.554;8.820;2023-03-25T12:36:02;0.57;;;0.30;;
8716;SDS011;4395;48.554;8.820;2023-03-25T12:38:29;0.40;;;0.30;;
8716;SDS011;4395;48.554;8.820;2023-03-25T12:40:44;1.27;;;0.43;;
8716;SDS011;4395;48.554;8.820;2023-03-25T12:42:59;1.88;;;0.60;;
8716;SDS011;4395;48.554;8.820;2023-03-25T12:45:14;1.27;;;0.40;;
8716;SDS011;4395;48.554;8.820;2023-03-25T12:47:29;0.47;;;0.40;;
8716;SDS011;4395;48.554;8.820;2023-03-25T12:49:40;0.50;;;0.40;;
8716;SDS011;4395;48.554;8.820;2023-03-25T12:51:54;1.63;;;0.57;;
8716;SDS011;4395;48.554;8.820;2023-03-25T12:54:07;2.03;;;0.40;;
8716;SDS011;4395;48.554;8.820;2023-03-25T12:56:24;0.85;;;0.47;;
8716;SDS011;4395;48.554;8.820;2023-03-25T13:01:14;0.80;;;0.50;;
8716;SDS011;4395;48.554;8.820;2023-03-25T13:03:32;1.33;;;0.57;;
8716;SDS011;4395;48.554;8.820;2023-03-25T13:05:47;0.90;;;0.47;;
8716;SDS011;4395;48.554;8.820;2023-03-25T13:07:56;1.00;;;0.38;;
8716;SDS011;4395;48.554;8.820;2023-03-25T13:10:06;0.57;;;0.40;;
8716;SDS011;4395;48.554;8.820;2023-03-25T13:12:18;1.75;;;0.73;;
8716;SDS011;4395;48.554;8.820;2023-03-25T13:14:29;1.23;;;0.43;;
8716;SDS011;4395;48.554;8.820;2023-03-25T13:16:38;0.90;;;0.50;;
8716;SDS011;4395;48.554;8.820;2023-03-25T13:18:45;0.95;;;0.57;;